Time;durP1;ratioP1;P1;durP2;ratioP2;P2;SDS_P1;SDS_P2;PMS_P1;PMS_P2;Temp;Humidity;BMP_temperature;BMP_pressure;BME280_temperature;BME280_humidity;BME280_pressure;Samples;Min_cycle;Max_cycle;Signal;HPM_P1;HPM_P2
2021/08/11 00:01:28;;;;;;;6.53;5.13;;;13.50;99.90;;;;;;4990214;28;20041;-83
2021/08/11 00:03:53;;;;;;;5.78;4.85;;;13.50;99.90;;;;;;4989847;28;20125;-83
2021/08/11 00:06:19;;;;;;;7.40;4.97;;;13.50;99.90;;;;;;4990039;28;20031;-82
2021/08/11 00:08:46;;;;;;;6.68;4.78;;;13.50;99.90;;;;;;4989868;28;20042;-83
2021/08/11 00:11:15;;;;;;;6.90;4.88;;;13.50;99.90;;;;;;4989880;28;20030;-82
2021/08/11 00:13:41;;;;;;;6.20;5.13;;;13.40;99.90;;;;;;4989739;28;20031;-83
2021/08/11 00:16:07;;;;;;;5.53;4.38;;;13.40;99.90;;;;;;4989585;28;20109;-83
2021/08/11 00:18:33;;;;;;;4.72;4.25;;;13.30;99.90;;;;;;5007192;28;20036;-83
2021/08/11 00:20:58;;;;;;;5.18;4.40;;;13.30;99.90;;;;;;4989762;28;20040;-83
2021/08/11 00:23:25;;;;;;;5.80;4.47;;;13.30;99.90;;;;;;4989657;28;20049;-83
2021/08/11 00:25:54;;;;;;;4.28;3.85;;;13.30;99.90;;;;;;4989708;28;20069;-83
2021/08/11 00:28:21;;;;;;;4.88;4.05;;;13.30;99.90;;;;;;4973404;28;20030;-83
2021/08/11 00:30:46;;;;;;;4.18;3.78;;;13.30;99.90;;;;;;4973290;28;20073;-82
2021/08/11 00:33:12;;;;;;;4.63;3.40;;;13.40;99.90;;;;;;4973385;28;20031;-83
2021/08/11 00:35:38;;;;;;;4.10;3.33;;;13.40;99.90;;;;;;4973509;28;20049;-83
2021/08/11 00:38:04;;;;;;;4.85;3.95;;;13.30;99.90;;;;;;4989373;28;20038;-83
2021/08/11 00:40:32;;;;;;;3.78;2.95;;;13.30;99.90;;;;;;4989472;28;20030;-83
2021/08/11 00:42:59;;;;;;;3.95;3.03;;;13.30;99.90;;;;;;4973164;28;20061;-83
2021/08/11 00:45:25;;;;;;;3.85;3.13;;;13.30;99.90;;;;;;4989066;28;20034;-82
2021/08/11 00:47:52;;;;;;;4.93;3.40;;;13.30;99.90;;;;;;4987169;23;20065;-83
2021/08/11 00:50:19;;;;;;;4.95;3.72;;;13.20;99.90;;;;;;4986410;28;20054;-82
2021/08/11 00:52:47;;;;;;;4.07;3.60;;;13.20;99.90;;;;;;4986262;28;20132;-82
2021/08/11 00:55:17;;;;;;;4.85;3.33;;;13.20;99.90;;;;;;4985939;28;20103;-81
2021/08/11 00:57:46;;;;;;;7.25;3.08;;;13.10;99.90;;;;;;4985681;28;20125;-82
2021/08/11 01:00:14;;;;;;;4.43;3.85;;;13.20;99.90;;;;;;4985966;28;20094;-82
2021/08/11 01:02:40;;;;;;;4.15;3.55;;;13.20;99.90;;;;;;5002309;28;20047;-82
2021/08/11 01:05:07;;;;;;;5.53;3.22;;;13.10;99.90;;;;;;4986007;28;20043;-82
2021/08/11 01:07:35;;;;;;;4.20;3.20;;;13.00;99.90;;;;;;4986174;28;20038;-82
2021/08/11 01:10:04;;;;;;;4.50;3.72;;;12.90;99.90;;;;;;4986119;28;20033;-81
2021/08/11 01:12:32;;;;;;;6.38;3.42;;;12.90;99.90;;;;;;4986092;28;20035;-82
2021/08/11 01:14:59;;;;;;;4.75;3.78;;;13.00;99.90;;;;;;4986033;28;20498;-82
2021/08/11 01:17:27;;;;;;;4.97;4.22;;;12.90;99.90;;;;;;4985667;28;20034;-82
2021/08/11 01:19:55;;;;;;;5.68;4.30;;;12.90;99.90;;;;;;4985558;28;20022;-82
2021/08/11 01:22:27;;;;;;;6.53;4.47;;;12.90;99.90;;;;;;4985483;28;20065;-82
2021/08/11 01:24:56;;;;;;;4.80;3.95;;;12.80;99.90;;;;;;4985526;28;20035;-82
2021/08/11 01:27:53;;;;;;;6.55;4.75;;;12.80;99.90;;;;;;4969646;28;20037;-82
2021/08/11 01:30:34;;;;;;;5.72;3.72;;;12.80;99.90;;;;;;4982109;28;20039;-82
2021/08/11 01:32:59;;;;;;;4.45;3.60;;;12.70;99.90;;;;;;4982406;28;20122;-82
2021/08/11 01:35:39;;;;;;;6.88;4.72;;;12.70;99.90;;;;;;4981991;28;20035;-82
2021/08/11 01:38:13;;;;;;;5.50;3.90;;;12.70;99.90;;;;;;4982360;28;20095;-82
2021/08/11 01:40:47;;;;;;;5.13;3.75;;;12.70;99.90;;;;;;4982259;28;20122;-82
2021/08/11 01:43:15;;;;;;;6.68;4.53;;;12.60;99.90;;;;;;4982207;28;20043;-82
2021/08/11 01:45:43;;;;;;;5.40;3.78;;;12.60;99.90;;;;;;4981796;28;20023;-83
2021/08/11 01:48:14;;;;;;;5.18;3.95;;;12.60;99.90;;;;;;4982075;28;20124;-83
2021/08/11 01:50:46;;;;;;;6.78;3.95;;;12.50;99.90;;;;;;4982179;28;20063;-83
2021/08/11 01:53:21;;;;;;;5.72;3.97;;;12.50;99.90;;;;;;4982024;28;20031;-83
2021/08/11 01:55:55;;;;;;;7.28;4.78;;;12.50;99.90;;;;;;4981776;28;20027;-83
2021/08/11 01:58:26;;;;;;;5.35;3.97;;;12.50;99.90;;;;;;4982162;28;20038;-82
2021/08/11 02:00:56;;;;;;;5.80;4.45;;;12.50;99.90;;;;;;4981775;28;20035;-83
2021/08/11 02:03:23;;;;;;;5.45;4.68;;;12.50;99.90;;;;;;4981774;28;20035;-83
2021/08/11 02:05:52;;;;;;;4.88;4.10;;;12.50;99.90;;;;;;4981756;28;20027;-83
2021/08/11 02:08:20;;;;;;;4.95;4.15;;;12.50;99.90;;;;;;4984219;28;20040;-83
2021/08/11 02:10:52;;;;;;;4.97;3.42;;;12.40;99.90;;;;;;4985167;28;20028;-82
2021/08/11 02:13:18;;;;;;;5.05;3.63;;;12.40;99.90;;;;;;4985683;28;20507;-83
2021/08/11 02:15:48;;;;;;;4.38;3.65;;;12.50;99.90;;;;;;4986698;28;20032;-83
2021/08/11 02:18:14;;;;;;;7.35;4.55;;;12.60;99.90;;;;;;4988640;28;20031;-83
2021/08/11 02:20:41;;;;;;;5.82;4.20;;;12.50;99.90;;;;;;4988725;28;20035;-83
2021/08/11 02:23:07;;;;;;;4.40;3.67;;;12.50;99.90;;;;;;4988503;28;20073;-83
2021/08/11 02:25:54;;;;;;;4.90;3.70;;;12.50;99.90;;;;;;4988782;28;20031;-82
2021/08/11 02:28:32;;;;;;;4.85;3.65;;;12.50;99.90;;;;;;4988775;28;20474;-82
2021/08/11 02:31:12;;;;;;;5.18;4.10;;;12.50;99.90;;;;;;4988475;28;20446;-82
2021/08/11 02:33:52;;;;;;;5.03;4.00;;;12.50;99.90;;;;;;4988306;28;20035;-82
2021/08/11 02:36:27;;;;;;;5.53;3.97;;;12.50;99.90;;;;;;4988683;28;20030;-82
2021/08/11 02:39:01;;;;;;;6.95;4.40;;;12.50;99.90;;;;;;4988491;28;20026;-82
2021/08/11 02:41:34;;;;;;;4.55;4.03;;;12.50;99.90;;;;;;4988212;28;20434;-82
2021/08/11 02:44:08;;;;;;;5.72;4.47;;;12.40;99.90;;;;;;4988225;28;20450;-82
2021/08/11 02:46:40;;;;;;;4.25;3.80;;;12.40;99.90;;;;;;4998131;23;20118;-82
2021/08/11 02:49:11;;;;;;;7.88;4.78;;;12.40;99.90;;;;;;5013378;28;20064;-82
2021/08/11 02:51:40;;;;;;;5.57;3.80;;;12.40;99.90;;;;;;5030952;28;20055;-82
2021/08/11 02:54:10;;;;;;;4.68;3.60;;;12.30;99.90;;;;;;5030985;28;20053;-82
2021/08/11 02:56:42;;;;;;;6.03;4.45;;;12.30;99.90;;;;;;5030966;28;20044;-82
2021/08/11 02:59:10;;;;;;;5.97;3.65;;;12.30;99.90;;;;;;5030884;28;20029;-82
2021/08/11 03:01:36;;;;;;;7.47;4.57;;;12.30;99.90;;;;;;5030607;28;20026;-82
2021/08/11 03:04:04;;;;;;;4.97;4.28;;;12.20;99.90;;;;;;5030931;28;20059;-82
2021/08/11 03:06:30;;;;;;;7.10;4.72;;;12.20;99.90;;;;;;5030675;28;20063;-81
2021/08/11 03:08:56;;;;;;;6.15;4.57;;;12.20;99.90;;;;;;5030569;28;20053;-82
2021/08/11 03:11:22;;;;;;;5.93;3.78;;;12.10;99.90;;;;;;5030845;28;20032;-82
2021/08/11 03:13:49;;;;;;;6.10;4.40;;;12.20;99.90;;;;;;5030537;28;20028;-82
2021/08/11 03:16:15;;;;;;;6.97;5.00;;;12.10;99.90;;;;;;5030498;28;20124;-81
2021/08/11 03:18:41;;;;;;;7.15;5.63;;;12.00;99.90;;;;;;5013036;28;20096;-82
2021/08/11 03:21:08;;;;;;;6.13;4.45;;;12.10;99.90;;;;;;5030105;28;20034;-81
2021/08/11 03:23:34;;;;;;;7.10;4.82;;;12.10;99.90;;;;;;5029929;28;20064;-82
2021/08/11 03:26:00;;;;;;;7.55;4.60;;;12.20;99.90;;;;;;5013707;28;20029;-81
2021/08/11 03:28:27;;;;;;;5.72;4.18;;;12.20;99.90;;;;;;5013664;28;20034;-81
2021/08/11 03:30:52;;;;;;;5.68;3.95;;;12.10;99.90;;;;;;5013805;28;20025;-82
2021/08/11 03:33:18;;;;;;;4.82;3.80;;;12.00;99.90;;;;;;5013480;28;20025;-82
2021/08/11 03:35:49;;;;;;;7.80;4.65;;;12.00;99.90;;;;;;5030055;28;20108;-82
2021/08/11 03:38:15;;;;;;;8.07;5.18;;;12.00;99.90;;;;;;5013562;28;20040;-82
2021/08/11 03:40:41;;;;;;;8.05;5.25;;;12.20;99.90;;;;;;5029889;28;20033;-80
2021/08/11 03:43:08;;;;;;;8.40;5.35;;;12.20;99.90;;;;;;5013316;28;20413;-82
2021/08/11 03:45:54;;;;;;;12.77;6.40;;;12.20;99.90;;;;;;5013206;28;20037;-82
2021/08/11 03:48:22;;;;;;;8.13;5.65;;;12.30;99.90;;;;;;4950550;29;20063;-83
2021/08/11 03:50:47;;;;;;;8.93;5.93;;;12.40;99.90;;;;;;4950383;29;20043;-82
2021/08/11 03:53:13;;;;;;;11.93;7.03;;;12.40;99.90;;;;;;4950447;29;20090;-82
2021/08/11 03:55:39;;;;;;;10.30;6.60;;;12.40;99.90;;;;;;4966683;29;20035;-82
2021/08/11 03:58:05;;;;;;;10.40;7.28;;;12.40;99.90;;;;;;4950392;29;20071;-82
2021/08/11 04:00:31;;;;;;;10.38;6.20;;;12.50;99.90;;;;;;4950361;29;20313;-83
2021/08/11 04:03:00;;;;;;;5.93;4.45;;;12.50;99.90;;;;;;4950663;29;20035;-82
2021/08/11 04:05:28;;;;;;;5.97;4.30;;;12.50;99.90;;;;;;4950550;29;20027;-83
2021/08/11 04:07:57;;;;;;;4.30;3.53;;;12.60;99.90;;;;;;4950715;29;20039;-82
2021/08/11 04:10:25;;;;;;;6.57;3.33;;;12.60;99.90;;;;;;4950998;29;20032;-82
2021/08/11 04:12:53;;;;;;;4.07;3.50;;;12.60;99.90;;;;;;4950443;29;20339;-82
2021/08/11 04:15:22;;;;;;;3.65;3.20;;;12.60;99.90;;;;;;4966122;29;20035;-83
2021/08/11 04:17:50;;;;;;;3.35;3.00;;;12.70;99.90;;;;;;4950529;29;20031;-83
2021/08/11 04:20:20;;;;;;;3.30;2.42;;;12.60;99.90;;;;;;4950563;29;20036;-83
2021/08/11 04:22:48;;;;;;;3.03;2.72;;;12.60;99.90;;;;;;4966109;29;20039;-82
2021/08/11 04:25:17;;;;;;;3.28;2.65;;;12.70;99.90;;;;;;5001364;28;20030;-83
2021/08/11 04:27:45;;;;;;;2.95;2.60;;;12.70;99.90;;;;;;5028969;28;20053;-82
2021/08/11 04:30:13;;;;;;;2.95;2.40;;;12.70;99.90;;;;;;5009282;28;20030;-83
2021/08/11 04:32:42;;;;;;;3.03;2.17;;;12.70;99.90;;;;;;5026225;28;20062;-83
2021/08/11 04:35:11;;;;;;;2.70;2.45;;;12.70;99.90;;;;;;5009255;28;20049;-83
2021/08/11 04:37:40;;;;;;;2.45;2.10;;;12.70;99.90;;;;;;5008893;28;20034;-83
2021/08/11 04:40:10;;;;;;;2.70;2.15;;;12.70;99.90;;;;;;5026490;28;20056;-83
2021/08/11 04:42:39;;;;;;;2.63;2.35;;;12.70;99.90;;;;;;5027477;28;20046;-83
2021/08/11 04:45:09;;;;;;;2.42;1.92;;;12.70;99.90;;;;;;5010353;28;20113;-83
2021/08/11 04:47:37;;;;;;;2.63;2.00;;;12.80;99.90;;;;;;5026487;23;20054;-83
2021/08/11 04:50:10;;;;;;;2.83;2.53;;;12.80;99.90;;;;;;5029266;28;20053;-83
2021/08/11 04:52:38;;;;;;;2.38;1.98;;;12.80;99.90;;;;;;5046203;28;20037;-82
2021/08/11 04:55:08;;;;;;;2.40;1.90;;;12.80;99.90;;;;;;5046062;28;20034;-82
2021/08/11 04:57:36;;;;;;;3.58;2.15;;;12.90;99.90;;;;;;5028903;28;20089;-83
2021/08/11 05:00:04;;;;;;;2.67;2.05;;;12.80;99.90;;;;;;5028615;28;20053;-81
2021/08/11 05:02:35;;;;;;;2.60;2.17;;;12.90;99.90;;;;;;5028440;28;20045;-81
2021/08/11 05:05:08;;;;;;;2.67;1.95;;;12.90;99.90;;;;;;5028268;28;20458;-80
2021/08/11 05:07:36;;;;;;;2.58;1.85;;;13.00;99.90;;;;;;5028229;28;20033;-82
2021/08/11 05:10:05;;;;;;;2.40;2.00;;;13.10;99.90;;;;;;5028163;28;20029;-82
2021/08/11 05:12:34;;;;;;;2.90;1.90;;;13.10;99.90;;;;;;5025726;28;20037;-82
2021/08/11 05:15:05;;;;;;;3.17;2.60;;;13.10;99.90;;;;;;5027350;28;20030;-82
2021/08/11 05:17:33;;;;;;;4.53;2.63;;;13.20;99.90;;;;;;5027835;28;20093;-81
2021/08/11 05:20:03;;;;;;;3.55;2.78;;;13.30;99.90;;;;;;5027949;28;20029;-82
2021/08/11 05:22:31;;;;;;;3.00;2.10;;;13.30;99.90;;;;;;5027937;28;20046;-82
2021/08/11 05:25:01;;;;;;;4.40;2.70;;;13.40;99.90;;;;;;5027834;28;20025;-82
2021/08/11 05:27:32;;;;;;;4.55;2.42;;;13.40;99.90;;;;;;5044953;28;20085;-81
2021/08/11 05:30:05;;;;;;;3.42;2.97;;;13.50;99.90;;;;;;5024048;28;20061;-83
2021/08/11 05:32:34;;;;;;;3.17;2.67;;;13.50;99.90;;;;;;5008057;28;20034;-82
2021/08/11 05:35:04;;;;;;;2.50;2.13;;;13.70;99.90;;;;;;5008041;28;20034;-82
2021/08/11 05:37:32;;;;;;;2.30;1.80;;;13.70;99.90;;;;;;5008073;28;20062;-83
2021/08/11 05:40:00;;;;;;;2.67;2.00;;;13.80;99.90;;;;;;5008148;28;20038;-83
2021/08/11 05:42:30;;;;;;;3.03;1.75;;;13.90;99.90;;;;;;5012334;28;20041;-82
2021/08/11 05:45:02;;;;;;;9.13;2.22;;;13.90;99.90;;;;;;5031409;28;20026;-83
2021/08/11 05:47:30;;;;;;;8.48;2.83;;;14.00;99.90;;;;;;5031131;28;20156;-83
2021/08/11 05:49:59;;;;;;;3.67;2.67;;;14.00;99.90;;;;;;5031227;28;20092;-82
2021/08/11 05:52:27;;;;;;;3.97;3.47;;;14.00;99.90;;;;;;5031459;28;20093;-83
2021/08/11 05:54:55;;;;;;;8.18;4.05;;;14.00;99.90;;;;;;5031512;28;20034;-84
2021/08/11 05:57:24;;;;;;;6.53;4.57;;;14.20;99.90;;;;;;5031359;28;20029;-85
2021/08/11 05:59:52;;;;;;;5.10;3.92;;;14.30;99.90;;;;;;5031541;28;20026;-86
2021/08/11 06:02:21;;;;;;;7.05;4.45;;;14.30;99.90;;;;;;5031397;28;20049;-85
2021/08/11 06:05:04;;;;;;;6.72;5.38;;;14.40;99.90;;;;;;5016361;28;20030;-84
2021/08/11 06:07:29;;;;;;;6.85;5.15;;;14.50;99.90;;;;;;5014376;28;20121;-84
2021/08/11 06:09:55;;;;;;;7.03;4.82;;;14.50;99.90;;;;;;5014459;28;20033;-85
2021/08/11 06:12:20;;;;;;;6.85;5.15;;;14.70;99.90;;;;;;5014099;28;20091;-84
2021/08/11 06:14:46;;;;;;;11.93;7.32;;;14.80;99.90;;;;;;5014026;28;20033;-84
2021/08/11 06:17:12;;;;;;;11.65;7.28;;;14.90;99.90;;;;;;5014127;28;20029;-86
2021/08/11 06:19:37;;;;;;;10.55;7.30;;;14.90;99.90;;;;;;5014726;28;20048;-86
2021/08/11 06:22:03;;;;;;;12.18;8.15;;;15.00;99.90;;;;;;5014356;28;20101;-87
2021/08/11 06:24:28;;;;;;;13.57;8.82;;;15.00;99.90;;;;;;5014670;28;20083;-87
2021/08/11 06:26:54;;;;;;;13.65;9.07;;;15.10;99.90;;;;;;5048790;28;20052;-86
2021/08/11 06:29:20;;;;;;;14.98;9.55;;;15.10;99.90;;;;;;5031035;28;20033;-86
2021/08/11 06:31:46;;;;;;;11.65;8.85;;;15.20;99.90;;;;;;5030886;28;20048;-86
2021/08/11 06:34:11;;;;;;;13.10;8.80;;;15.20;99.90;;;;;;5014558;28;20120;-85
2021/08/11 06:36:37;;;;;;;10.23;7.65;;;15.30;99.90;;;;;;5014150;28;20348;-86
2021/08/11 06:39:03;;;;;;;11.32;8.35;;;15.40;99.90;;;;;;5014249;28;20649;-86
2021/08/11 06:41:29;;;;;;;12.82;8.77;;;15.60;99.90;;;;;;5014069;28;20080;-86
2021/08/11 06:44:08;;;;;;;10.67;7.93;;;15.80;99.90;;;;;;5016057;28;20052;-86
2021/08/11 06:49:02;;;;;;;10.15;7.80;;;16.10;99.90;;;;;;5028865;28;20126;-85
2021/08/11 06:51:27;;;;;;;11.35;7.80;;;16.20;99.90;;;;;;5014320;28;20060;-86
2021/08/11 06:53:53;;;;;;;9.80;7.00;;;16.30;99.90;;;;;;5014511;28;20040;-86
2021/08/11 06:56:18;;;;;;;10.63;7.65;;;16.60;99.90;;;;;;5014441;28;20056;-86
2021/08/11 06:58:44;;;;;;;9.75;8.30;;;16.80;99.90;;;;;;5014050;28;20029;-85
2021/08/11 07:01:10;;;;;;;12.77;9.65;;;16.90;99.90;;;;;;5030401;28;20421;-85
2021/08/11 07:03:35;;;;;;;10.07;8.07;;;17.00;99.90;;;;;;5030888;28;20111;-84
2021/08/11 07:06:03;;;;;;;9.05;6.80;;;17.20;99.90;;;;;;5014172;28;20026;-84
2021/08/11 07:08:28;;;;;;;8.68;6.45;;;17.50;99.90;;;;;;5013915;28;20034;-85
2021/08/11 07:10:54;;;;;;;10.80;8.30;;;17.60;99.90;;;;;;5013934;28;20029;-85
2021/08/11 07:13:20;;;;;;;12.00;7.20;;;17.60;99.90;;;;;;5013941;28;20037;-84
2021/08/11 07:15:47;;;;;;;9.68;7.90;;;17.60;99.90;;;;;;5013653;28;20049;-84
2021/08/11 07:18:16;;;;;;;10.48;6.88;;;17.90;99.90;;;;;;5013534;28;20071;-85
2021/08/11 07:20:42;;;;;;;9.25;7.60;;;18.10;99.90;;;;;;5013491;28;20273;-85
2021/08/11 07:23:08;;;;;;;8.68;7.03;;;18.30;99.90;;;;;;5013207;28;20045;-84
2021/08/11 07:25:33;;;;;;;7.07;6.18;;;18.30;99.90;;;;;;5013156;28;20046;-84
2021/08/11 07:27:59;;;;;;;7.60;5.75;;;18.40;99.90;;;;;;5029417;28;20040;-84
2021/08/11 07:30:24;;;;;;;8.65;7.05;;;18.60;99.90;;;;;;5013334;28;20460;-84
2021/08/11 07:32:50;;;;;;;7.70;5.95;;;18.90;99.90;;;;;;5013193;28;20037;-85
2021/08/11 07:35:16;;;;;;;7.22;6.32;;;18.90;99.90;;;;;;5013403;28;20026;-84
2021/08/11 07:37:46;;;;;;;5.68;4.93;;;19.00;99.90;;;;;;5013078;28;20100;-84
2021/08/11 07:40:13;;;;;;;11.75;6.55;;;19.10;99.90;;;;;;5029321;28;20048;-82
2021/08/11 07:42:40;;;;;;;7.50;5.70;;;19.20;99.90;;;;;;5028890;28;20097;-83
2021/08/11 07:45:07;;;;;;;9.73;6.15;;;19.30;99.90;;;;;;5029282;28;20029;-82
2021/08/11 07:47:32;;;;;;;9.27;6.60;;;19.30;99.90;;;;;;5028225;28;20106;-83
2021/08/11 07:49:58;;;;;;;8.32;5.72;;;19.10;99.90;;;;;;5029001;28;20040;-84
2021/08/11 07:52:23;;;;;;;7.20;5.38;;;19.10;99.90;;;;;;5012406;28;20056;-84
2021/08/11 07:54:49;;;;;;;8.65;6.05;;;19.50;99.90;;;;;;5012240;28;20312;-83
2021/08/11 07:57:14;;;;;;;8.55;6.35;;;19.60;99.90;;;;;;5012364;28;20060;-83
2021/08/11 07:59:40;;;;;;;7.32;5.20;;;19.60;99.90;;;;;;5028786;28;20052;-83
2021/08/11 08:02:10;;;;;;;5.88;5.25;;;19.50;99.90;;;;;;5028431;28;20036;-83
2021/08/11 08:04:35;;;;;;;6.15;5.20;;;19.80;99.90;;;;;;5012018;28;20056;-83
2021/08/11 08:07:01;;;;;;;5.65;4.78;;;19.80;99.90;;;;;;5011923;28;20029;-83
2021/08/11 08:09:27;;;;;;;5.88;4.45;;;20.00;99.90;;;;;;5012254;28;20033;-84
2021/08/11 08:11:52;;;;;;;5.95;4.38;;;20.20;99.90;;;;;;5028411;28;20065;-83
2021/08/11 08:14:18;;;;;;;6.85;4.60;;;20.50;99.90;;;;;;5012057;28;20044;-84
2021/08/11 08:16:43;;;;;;;6.45;4.82;;;20.60;99.90;;;;;;5028182;28;20414;-83
2021/08/11 08:19:09;;;;;;;7.63;4.85;;;20.60;99.90;;;;;;5046319;28;20030;-84
2021/08/11 08:21:35;;;;;;;4.68;4.00;;;21.10;99.90;;;;;;5011753;28;20040;-83
2021/08/11 08:24:00;;;;;;;5.70;4.63;;;20.90;99.90;;;;;;5011665;28;20041;-84
2021/08/11 08:26:26;;;;;;;4.55;3.38;;;20.80;99.90;;;;;;5028167;28;20033;-83
2021/08/11 08:28:52;;;;;;;6.07;3.78;;;21.00;99.90;;;;;;5011724;28;20069;-84
2021/08/11 08:31:17;;;;;;;6.60;5.10;;;21.10;99.90;;;;;;5028023;28;20116;-84
2021/08/11 08:33:43;;;;;;;6.20;4.22;;;20.70;99.90;;;;;;5011837;28;20033;-84
2021/08/11 08:36:10;;;;;;;5.75;4.15;;;21.10;99.90;;;;;;5011704;28;20029;-83
2021/08/11 08:38:36;;;;;;;5.15;2.85;;;21.10;99.90;;;;;;5027834;28;20038;-84
2021/08/11 08:41:02;;;;;;;6.07;3.90;;;21.40;99.90;;;;;;5011550;28;20071;-83
2021/08/11 08:43:28;;;;;;;6.45;4.20;;;21.70;99.90;;;;;;5011574;28;20041;-84
2021/08/11 08:46:15;;;;;;;7.20;4.32;;;21.60;99.90;;;;;;5011255;28;20033;-83
2021/08/11 08:48:41;;;;;;;4.03;3.05;;;22.00;99.90;;;;;;4948565;29;20051;-84
2021/08/11 08:51:10;;;;;;;12.05;7.28;;;22.20;99.90;;;;;;4948817;29;20130;-83
2021/08/11 08:53:38;;;;;;;10.65;6.45;;;21.10;99.90;;;;;;4933005;29;20106;-84
2021/08/11 08:56:04;;;;;;;5.95;4.28;;;20.90;99.90;;;;;;4932669;29;20035;-84
2021/08/11 08:58:30;;;;;;;4.63;3.10;;;21.40;99.90;;;;;;4948855;29;20039;-84
2021/08/11 09:00:57;;;;;;;5.78;4.03;;;22.00;99.90;;;;;;4932953;29;20122;-82
2021/08/11 09:03:22;;;;;;;4.97;2.88;;;21.90;99.90;;;;;;4932550;29;20467;-85
2021/08/11 09:05:48;;;;;;;4.50;2.97;;;22.50;99.90;;;;;;4948918;29;20114;-84
2021/08/11 09:08:14;;;;;;;4.90;4.03;;;22.40;99.90;;;;;;4932576;29;20056;-83
2021/08/11 09:10:40;;;;;;;6.45;3.95;;;21.90;99.90;;;;;;4948474;29;20058;-83
2021/08/11 09:13:19;;;;;;;5.70;3.90;;;21.90;99.90;;;;;;4932935;29;20043;-84
2021/08/11 09:16:03;;;;;;;4.82;3.22;;;21.70;99.90;;;;;;4950146;28;20031;-83
2021/08/11 09:18:28;;;;;;;4.55;2.72;;;21.70;99.90;;;;;;4951253;28;20042;-84
2021/08/11 09:21:03;;;;;;;6.63;3.83;;;21.60;99.90;;;;;;4967742;28;20147;-83
2021/08/11 09:23:43;;;;;;;6.10;4.55;;;21.60;99.90;;;;;;4951450;28;20504;-83
2021/08/11 09:26:14;;;;;;;8.48;4.68;;;21.50;99.90;;;;;;5007198;28;20057;-83
2021/08/11 09:28:43;;;;;;;9.07;5.15;;;21.10;99.90;;;;;;5044859;28;20093;-83
2021/08/11 09:31:25;;;;;;;7.00;3.95;;;21.10;99.90;;;;;;5044824;28;20029;-83
2021/08/11 09:33:53;;;;;;;6.03;3.65;;;20.80;99.90;;;;;;5043889;28;20022;-83
2021/08/11 09:36:19;;;;;;;6.63;4.13;;;21.10;99.90;;;;;;5027153;28;20083;-84
2021/08/11 09:39:00;;;;;;;4.68;3.15;;;21.30;99.90;;;;;;5010796;28;20389;-83
2021/08/11 09:41:26;;;;;;;5.65;3.53;;;21.90;99.90;;;;;;5010573;28;20034;-83
2021/08/11 09:44:09;;;;;;;4.95;4.07;;;22.40;99.90;;;;;;5026925;28;20045;-83
2021/08/11 09:46:36;;;;;;;4.65;3.70;;;22.10;99.90;;;;;;5027163;28;20097;-84
2021/08/11 09:49:18;;;;;;;5.63;3.92;;;22.20;99.90;;;;;;5026951;28;20242;-84
2021/08/11 09:51:59;;;;;;;4.90;2.60;;;22.50;99.90;;;;;;5027135;28;20045;-82
2021/08/11 09:54:26;;;;;;;3.72;3.22;;;22.90;99.90;;;;;;5010758;28;20038;-84
2021/08/11 09:56:51;;;;;;;5.63;2.95;;;23.10;99.90;;;;;;5010556;28;20030;-83
2021/08/11 09:59:17;;;;;;;6.55;3.35;;;23.30;99.90;;;;;;5027140;28;20056;-84
2021/08/11 10:01:43;;;;;;;4.68;3.28;;;23.50;99.90;;;;;;5027057;28;20038;-83
2021/08/11 10:04:11;;;;;;;4.32;2.50;;;23.30;99.90;;;;;;5010621;28;20094;-84
2021/08/11 10:06:45;;;;;;;4.80;2.67;;;23.70;99.90;;;;;;5010694;28;20037;-84
2021/08/11 10:09:17;;;;;;;6.13;4.45;;;23.80;99.90;;;;;;5010377;28;20037;-82
2021/08/11 10:11:47;;;;;;;4.60;2.30;;;22.80;99.90;;;;;;5027007;28;20026;-83
2021/08/11 10:14:15;;;;;;;5.63;2.80;;;23.90;99.90;;;;;;5010421;28;20044;-83
2021/08/11 10:16:42;;;;;;;3.55;1.63;;;24.40;99.90;;;;;;5010234;28;20037;-83
2021/08/11 10:19:10;;;;;;;3.25;1.83;;;24.20;99.90;;;;;;5010433;28;20030;-83
2021/08/11 10:22:01;;;;;;;3.50;2.08;;;24.60;99.90;;;;;;5044537;28;20041;-83
2021/08/11 10:24:30;;;;;;;3.08;1.77;;;24.30;99.90;;;;;;5010505;28;20029;-83
2021/08/11 10:26:56;;;;;;;2.38;1.23;;;24.40;99.90;;;;;;5044557;28;20060;-84
2021/08/11 10:29:24;;;;;;;4.07;1.77;;;23.90;99.90;;;;;;5046654;28;20029;-83
2021/08/11 10:31:49;;;;;;;3.35;1.30;;;24.40;99.90;;;;;;5030351;28;20064;-83
2021/08/11 10:34:16;;;;;;;2.33;0.90;;;24.20;99.90;;;;;;5013929;28;20033;-83
2021/08/11 10:36:46;;;;;;;3.70;1.00;;;24.20;99.90;;;;;;5014177;28;20068;-84
2021/08/11 10:39:14;;;;;;;2.15;1.05;;;24.40;99.90;;;;;;5013980;28;20037;-84
2021/08/11 10:41:40;;;;;;;2.40;0.95;;;24.60;99.90;;;;;;5030291;28;20042;-84
2021/08/11 10:44:18;;;;;;;1.50;0.70;;;24.30;99.90;;;;;;5029927;28;20195;-84
2021/08/11 10:46:48;;;;;;;2.45;1.40;;;24.00;99.90;;;;;;5029749;28;20045;-83
2021/08/11 10:49:17;;;;;;;;;;;23.20;99.90;;;;;;5048202;28;20047;-83
2021/08/11 10:51:44;;;;;;;;;;;22.50;99.90;;;;;;5030417;28;19916;-83
2021/08/11 10:54:11;;;;;;;2.85;1.15;;;23.00;99.90;;;;;;5013392;28;19927;-83
2021/08/11 10:56:43;;;;;;;2.42;1.20;;;24.10;99.90;;;;;;5029833;28;20061;-83
2021/08/11 10:59:21;;;;;;;1.70;0.80;;;23.80;99.90;;;;;;5013154;28;20029;-84
2021/08/11 11:01:52;;;;;;;2.38;1.30;;;23.80;99.90;;;;;;5013185;28;20133;-83
2021/08/11 11:04:46;;;;;;;2.65;0.85;;;24.20;99.90;;;;;;5013252;28;20033;-83
2021/08/11 11:07:16;;;;;;;2.22;1.27;;;24.80;99.90;;;;;;5047532;28;20405;-84
2021/08/11 11:09:43;;;;;;;1.80;0.90;;;24.50;99.90;;;;;;5013245;28;20029;-84
2021/08/11 11:12:18;;;;;;;2.08;1.23;;;24.90;99.90;;;;;;5013116;28;20036;-83
2021/08/11 11:14:56;;;;;;;2.28;1.08;;;25.00;99.90;;;;;;5013008;28;20036;-83
2021/08/11 11:17:29;;;;;;;1.65;0.80;;;25.20;99.90;;;;;;5029231;28;20026;-82
2021/08/11 11:20:09;;;;;;;3.00;1.60;;;26.00;99.90;;;;;;5012943;28;20044;-83
2021/08/11 11:22:37;;;;;;;1.60;0.80;;;24.90;99.90;;;;;;5012843;28;20041;-83
2021/08/11 11:25:04;;;;;;;1.80;1.27;;;25.50;99.90;;;;;;5013018;28;20045;-83
2021/08/11 11:27:42;;;;;;;1.65;0.73;;;24.70;99.90;;;;;;5012959;28;20091;-84
2021/08/11 11:30:13;;;;;;;1.92;0.73;;;24.80;99.90;;;;;;5028934;28;20041;-82
2021/08/11 11:32:39;;;;;;;1.48;0.70;;;24.50;99.90;;;;;;5012810;28;20025;-83
2021/08/11 11:35:16;;;;;;;2.65;1.17;;;24.40;99.90;;;;;;5013254;28;20064;-83
2021/08/11 11:37:43;;;;;;;3.67;2.13;;;24.50;99.90;;;;;;5013087;28;20052;-83
2021/08/11 11:40:11;;;;;;;3.63;0.93;;;23.70;99.90;;;;;;5011732;28;20121;-83
2021/08/11 11:42:38;;;;;;;2.35;1.00;;;24.20;99.90;;;;;;5012500;28;20040;-83
2021/08/11 11:45:13;;;;;;;2.55;0.93;;;24.90;99.90;;;;;;5028661;28;20033;-82
2021/08/11 11:47:39;;;;;;;2.22;1.02;;;25.30;99.90;;;;;;5033309;22;20052;-83
2021/08/11 11:50:20;;;;;;;1.98;1.13;;;25.50;99.90;;;;;;5009447;28;20048;-82
2021/08/11 11:52:48;;;;;;;1.83;0.82;;;25.90;99.90;;;;;;5009809;28;20025;-84
2021/08/11 11:55:15;;;;;;;1.60;0.80;;;26.40;99.90;;;;;;5009406;28;20077;-82
2021/08/11 11:57:41;;;;;;;1.30;0.52;;;25.70;99.90;;;;;;4993202;28;20038;-82
2021/08/11 12:00:07;;;;;;;2.72;1.10;;;25.90;99.90;;;;;;4993253;28;20070;-84
2021/08/11 12:02:37;;;;;;;2.58;0.60;;;25.40;99.90;;;;;;5010100;28;20042;-87
2021/08/11 12:05:04;;;;;;;2.97;0.70;;;26.60;99.90;;;;;;4993447;28;20036;-84
2021/08/11 12:07:32;;;;;;;1.50;0.80;;;26.00;99.90;;;;;;5009744;28;20061;-84
2021/08/11 12:10:00;;;;;;;1.20;0.50;;;25.80;99.90;;;;;;4993200;28;20034;-83
2021/08/11 12:12:27;;;;;;;1.75;0.70;;;25.50;99.90;;;;;;5009314;28;20285;-84
2021/08/11 12:15:19;;;;;;;1.20;0.50;;;25.60;99.90;;;;;;4992692;28;20034;-84
2021/08/11 12:17:45;;;;;;;2.30;0.60;;;25.60;99.90;;;;;;5008872;28;20034;-84
2021/08/11 12:20:29;;;;;;;1.75;0.80;;;25.00;99.90;;;;;;5008850;28;20094;-84
2021/08/11 12:22:57;;;;;;;1.73;0.70;;;24.60;99.90;;;;;;4992532;28;20046;-84
2021/08/11 12:25:28;;;;;;;1.95;0.60;;;24.40;99.90;;;;;;4992274;28;20080;-84
2021/08/11 12:28:09;;;;;;;1.67;0.90;;;24.50;99.90;;;;;;5008601;28;20042;-84
2021/08/11 12:30:58;;;;;;;1.10;0.50;;;24.60;99.90;;;;;;5008540;28;20041;-82
2021/08/11 12:33:26;;;;;;;1.98;0.70;;;24.70;99.90;;;;;;4992406;28;20448;-83
2021/08/11 12:35:52;;;;;;;1.52;0.60;;;24.90;99.90;;;;;;4992325;28;20036;-83
2021/08/11 12:38:26;;;;;;;2.15;0.70;;;24.80;99.90;;;;;;5008399;28;20065;-82
2021/08/11 12:40:53;;;;;;;1.45;0.60;;;24.70;99.90;;;;;;5008642;28;20041;-83
2021/08/11 12:43:19;;;;;;;1.35;0.60;;;24.90;99.90;;;;;;4992209;28;20062;-82
2021/08/11 12:45:47;;;;;;;2.10;0.80;;;25.10;99.90;;;;;;4991626;28;20186;-83
2021/08/11 12:48:29;;;;;;;1.20;0.50;;;25.10;99.90;;;;;;5007964;28;20117;-84
2021/08/11 12:50:57;;;;;;;1.38;0.70;;;25.30;99.90;;;;;;4991624;28;20034;-82
2021/08/11 12:53:29;;;;;;;1.52;0.70;;;24.90;99.90;;;;;;5008228;28;20052;-82
2021/08/11 12:56:16;;;;;;;1.58;0.60;;;25.10;99.90;;;;;;5007816;28;20034;-81
2021/08/11 12:58:55;;;;;;;1.55;0.60;;;24.20;99.90;;;;;;5008024;28;20049;-81